createdAt,value
2022-11-07T00:00:26.134Z,18.27
2022-11-07T00:02:56.115Z,23.70
2022-11-07T00:05:29.158Z,21.80
2022-11-07T00:07:59.006Z,19.90
2022-11-07T00:10:31.452Z,20.73
2022-11-07T00:13:01.303Z,12.90
2022-11-07T00:15:31.120Z,11.27
2022-11-07T00:18:01.405Z,11.85
2022-11-07T00:20:31.251Z,18.92
2022-11-07T00:23:01.098Z,13.05
2022-11-07T00:25:33.541Z,12.15
2022-11-07T00:28:03.494Z,16.90
2022-11-07T00:30:33.370Z,13.90
2022-11-07T00:33:03.298Z,11.88
2022-11-07T00:35:33.145Z,9.27
2022-11-07T00:38:03.026Z,7.65
2022-11-07T00:40:35.455Z,5.85
2022-11-07T00:43:05.345Z,5.57
2022-11-07T00:45:36.073Z,4.15
2022-11-07T00:48:09.040Z,5.10
2022-11-07T00:50:38.892Z,5.18
2022-11-07T00:53:08.731Z,12.75
2022-11-07T00:55:41.352Z,11.20
2022-11-07T00:58:13.801Z,10.63
2022-11-07T01:00:45.154Z,11.38
2022-11-07T01:03:29.159Z,11.32
2022-11-07T01:06:00.296Z,10.30
2022-11-07T01:08:30.858Z,9.63
2022-11-07T01:11:06.756Z,9.75
2022-11-07T01:13:37.227Z,7.70
2022-11-07T01:16:07.851Z,7.32
2022-11-07T01:18:37.677Z,7.80
2022-11-07T01:21:12.209Z,11.13
2022-11-07T01:23:46.247Z,28.90
2022-11-07T01:26:19.275Z,24.40
2022-11-07T01:28:49.311Z,14.90
2022-11-07T01:31:20.093Z,9.32
2022-11-07T01:33:50.250Z,7.90
2022-11-07T01:36:21.238Z,7.97
2022-11-07T01:38:51.763Z,8.05
2022-11-07T01:41:27.213Z,8.32
2022-11-07T01:44:00.234Z,9.90
2022-11-07T01:46:33.625Z,11.10
2022-11-07T01:49:09.382Z,11.38
2022-11-07T01:51:43.463Z,10.80
2022-11-07T01:54:14.085Z,13.20
2022-11-07T01:56:47.542Z,12.15
2022-11-07T01:59:19.807Z,17.77
2022-11-07T02:01:52.116Z,9.82
2022-11-07T02:04:24.372Z,11.95
2022-11-07T02:06:57.725Z,16.92
2022-11-07T02:09:27.666Z,14.35
2022-11-07T02:12:01.261Z,16.42
2022-11-07T02:14:32.358Z,12.38
2022-11-07T02:17:03.665Z,13.00
2022-11-07T02:19:37.871Z,10.15
2022-11-07T02:22:15.954Z,9.32
2022-11-07T02:24:48.968Z,10.73
2022-11-07T02:27:22.108Z,7.25
2022-11-07T02:29:56.167Z,8.57
2022-11-07T02:32:26.186Z,7.25
2022-11-07T02:35:00.170Z,7.97
2022-11-07T02:37:32.346Z,6.95
2022-11-07T02:40:08.046Z,6.60
2022-11-07T02:42:46.244Z,8.02
2022-11-07T02:45:18.178Z,8.73
2022-11-07T02:47:48.241Z,7.30
2022-11-07T02:50:19.009Z,7.18
2022-11-07T02:52:49.000Z,8.00
2022-11-07T02:55:21.554Z,9.60
2022-11-07T02:57:51.875Z,9.95
2022-11-07T03:00:21.753Z,13.73
2022-11-07T03:02:51.756Z,12.02
2022-11-07T03:05:22.862Z,7.53
2022-11-07T03:07:54.411Z,6.93
2022-11-07T03:10:27.016Z,9.30
2022-11-07T03:12:56.996Z,6.65
2022-11-07T03:15:27.149Z,8.95
2022-11-07T03:17:57.346Z,7.75
2022-11-07T03:20:27.212Z,10.07
2022-11-07T03:22:57.066Z,8.18
2022-11-07T03:25:29.517Z,9.40
2022-11-07T03:28:00.096Z,5.03
2022-11-07T03:30:30.301Z,6.10
2022-11-07T03:33:00.192Z,5.28
2022-11-07T03:35:30.841Z,6.00
2022-11-07T03:38:00.715Z,5.50
2022-11-07T03:40:33.237Z,4.47
2022-11-07T03:43:03.102Z,6.18
2022-11-07T03:45:32.955Z,4.80
2022-11-07T03:48:02.817Z,4.95
2022-11-07T03:50:32.770Z,3.58
2022-11-07T03:53:02.653Z,4.88
2022-11-07T03:55:35.116Z,5.93
2022-11-07T03:58:05.948Z,5.90
2022-11-07T04:00:35.865Z,3.90
2022-11-07T04:03:05.720Z,4.43
2022-11-07T04:05:35.598Z,3.22
2022-11-07T04:08:05.457Z,5.95
2022-11-07T04:10:38.017Z,4.30
2022-11-07T04:13:20.102Z,4.38
2022-11-07T04:16:02.426Z,3.92
2022-11-07T04:18:32.476Z,4.60
2022-11-07T04:21:02.357Z,4.25
2022-11-07T04:23:32.199Z,3.47
2022-11-07T04:26:22.780Z,5.18
2022-11-07T04:28:52.685Z,3.95
2022-11-07T04:31:22.631Z,3.83
2022-11-07T04:33:52.659Z,5.07
2022-11-07T04:36:22.672Z,3.92
2022-11-07T04:38:52.529Z,2.20
2022-11-07T04:41:26.836Z,4.22
2022-11-07T04:43:57.038Z,3.17
2022-11-07T04:46:27.273Z,3.53
2022-11-07T04:48:57.113Z,3.08
2022-11-07T04:51:27.085Z,3.03
2022-11-07T04:53:57.033Z,4.18
2022-11-07T04:56:33.365Z,3.63
2022-11-07T04:59:04.376Z,4.70
2022-11-07T05:01:34.341Z,3.80
2022-11-07T05:04:04.636Z,3.65
2022-11-07T05:06:37.524Z,4.93
2022-11-07T05:09:09.409Z,3.65
2022-11-07T05:11:41.865Z,4.25
2022-11-07T05:14:11.736Z,5.75
2022-11-07T05:16:42.016Z,4.47
2022-11-07T05:19:15.710Z,2.90
2022-11-07T05:21:46.099Z,4.22
2022-11-07T05:24:14.335Z,3.55
2022-11-07T05:26:46.758Z,3.53
2022-11-07T05:29:16.589Z,2.80
2022-11-07T05:31:46.409Z,4.43
2022-11-07T05:34:16.557Z,3.63
2022-11-07T05:36:46.507Z,3.67
2022-11-07T05:39:16.437Z,2.95
2022-11-07T05:41:48.883Z,3.75
2022-11-07T05:44:18.729Z,4.35
2022-11-07T05:46:48.736Z,3.45
2022-11-07T05:49:18.757Z,4.30
2022-11-07T05:51:48.590Z,3.50
2022-11-07T05:54:19.392Z,3.88
2022-11-07T05:56:51.888Z,2.63
2022-11-07T05:59:21.993Z,2.58
2022-11-07T06:01:51.929Z,3.30
2022-11-07T06:04:21.907Z,3.03
2022-11-07T06:06:51.934Z,3.28
2022-11-07T06:09:21.794Z,4.20
2022-11-07T06:11:54.292Z,2.80
2022-11-07T06:14:24.158Z,3.33
2022-11-07T06:16:54.095Z,2.78
2022-11-07T06:19:24.074Z,3.42
2022-11-07T06:21:53.906Z,3.92
2022-11-07T06:24:23.728Z,3.40
2022-11-07T06:26:56.226Z,2.95
2022-11-07T06:29:26.069Z,4.60
2022-11-07T06:31:55.998Z,3.67
2022-11-07T06:34:25.887Z,2.30
2022-11-07T06:37:02.479Z,2.47
2022-11-07T06:39:33.015Z,3.10
2022-11-07T06:42:05.487Z,3.45
2022-11-07T06:44:35.349Z,2.47
2022-11-07T06:47:05.437Z,3.38
2022-11-07T06:49:35.277Z,3.38
2022-11-07T06:52:05.196Z,3.42
2022-11-07T06:54:35.483Z,3.58
2022-11-07T06:57:08.010Z,3.38
2022-11-07T06:59:37.895Z,2.53
2022-11-07T07:02:08.395Z,3.83
2022-11-07T07:04:38.472Z,3.13
2022-11-07T07:07:08.723Z,4.50
2022-11-07T07:09:38.652Z,3.60
2022-11-07T07:12:16.340Z,2.53
2022-11-07T07:14:46.257Z,4.63
2022-11-07T07:17:16.236Z,4.10
2022-11-07T07:19:46.487Z,3.88
2022-11-07T07:22:16.853Z,3.08
2022-11-07T07:24:48.263Z,4.75
2022-11-07T07:27:20.764Z,4.57
2022-11-07T07:29:50.739Z,4.32
2022-11-07T07:32:20.580Z,3.72
2022-11-07T07:34:50.459Z,3.65
2022-11-07T07:37:21.077Z,4.03
2022-11-07T07:39:50.918Z,4.00
2022-11-07T07:42:23.401Z,3.08
2022-11-07T07:44:53.309Z,3.67
2022-11-07T07:47:23.149Z,3.22
2022-11-07T07:49:53.027Z,3.38
2022-11-07T07:52:23.521Z,3.55
2022-11-07T07:54:53.378Z,2.83
2022-11-07T07:57:25.848Z,2.80
2022-11-07T07:59:55.743Z,3.10
2022-11-07T08:02:25.725Z,2.25
2022-11-07T08:04:55.568Z,3.85
2022-11-07T08:07:25.505Z,1.55
2022-11-07T08:09:55.896Z,3.20
2022-11-07T08:12:28.351Z,3.05
2022-11-07T08:14:58.220Z,3.33
2022-11-07T08:17:28.054Z,2.75
2022-11-07T08:19:57.889Z,3.45
2022-11-07T08:22:30.080Z,3.40
2022-11-07T08:25:00.277Z,3.38
2022-11-07T08:27:32.722Z,3.60
2022-11-07T08:30:03.017Z,3.15
2022-11-07T08:32:32.987Z,2.63
2022-11-07T08:35:02.887Z,3.67
2022-11-07T08:37:32.726Z,2.55
2022-11-07T08:40:02.585Z,2.90
2022-11-07T08:42:35.225Z,3.70
2022-11-07T08:45:05.113Z,2.70
2022-11-07T08:47:34.941Z,2.65
2022-11-07T08:50:04.927Z,2.70
2022-11-07T08:52:39.877Z,2.60
2022-11-07T08:55:10.797Z,3.10
2022-11-07T08:57:43.246Z,3.00
2022-11-07T09:00:14.677Z,2.70
2022-11-07T09:03:18.323Z,3.25
2022-11-07T09:05:35.335Z,3.80
2022-11-07T09:08:05.212Z,3.13
2022-11-07T09:10:35.238Z,3.25
2022-11-07T09:13:07.714Z,3.53
2022-11-07T09:15:37.840Z,2.97
2022-11-07T09:18:08.618Z,3.25
2022-11-07T09:20:38.486Z,3.67
2022-11-07T09:23:10.197Z,3.60
2022-11-07T09:25:40.072Z,3.72
2022-11-07T09:28:13.316Z,3.17
2022-11-07T09:30:43.229Z,3.15
2022-11-07T09:33:13.425Z,3.25
2022-11-07T09:35:43.564Z,2.50
2022-11-07T09:38:14.735Z,3.75
2022-11-07T09:40:51.893Z,3.50
2022-11-07T09:43:40.011Z,3.88
2022-11-07T09:46:19.735Z,2.90
2022-11-07T09:48:52.475Z,3.15
2022-11-07T09:51:29.467Z,3.30
2022-11-07T09:54:02.701Z,3.45
2022-11-07T09:56:34.409Z,3.95
2022-11-07T09:59:14.196Z,4.10
2022-11-07T10:01:44.753Z,3.00
2022-11-07T10:04:27.203Z,3.35
2022-11-07T10:06:59.505Z,2.97
2022-11-07T10:09:36.765Z,2.85
2022-11-07T10:12:13.030Z,4.05
2022-11-07T10:14:54.869Z,2.90
2022-11-07T10:17:32.424Z,3.63
2022-11-07T10:20:19.360Z,3.85
2022-11-07T10:23:02.300Z,3.50
2022-11-07T10:25:35.469Z,3.35
2022-11-07T10:28:16.641Z,2.80
2022-11-07T10:30:51.745Z,3.60
2022-11-07T10:33:35.412Z,3.05
2022-11-07T10:36:13.743Z,3.20
2022-11-07T10:38:44.420Z,3.73
2022-11-07T10:41:17.698Z,3.03
2022-11-07T10:43:49.961Z,3.25
2022-11-07T10:46:24.505Z,3.40
2022-11-07T10:48:56.467Z,2.95
2022-11-07T10:51:44.394Z,3.50
2022-11-07T10:54:22.742Z,4.00
2022-11-07T10:56:57.210Z,2.50
2022-11-07T10:59:35.691Z,3.10
2022-11-07T11:02:22.545Z,2.92
2022-11-07T11:04:54.224Z,2.70
2022-11-07T11:07:28.420Z,3.15
2022-11-07T11:10:00.590Z,2.75
2022-11-07T11:12:34.899Z,2.97
2022-11-07T11:15:10.611Z,3.03
2022-11-07T11:17:44.248Z,2.85
2022-11-07T11:20:31.450Z,3.15
2022-11-07T11:23:02.575Z,3.05
2022-11-07T11:25:33.553Z,4.03
2022-11-07T11:28:06.446Z,2.28
2022-11-07T11:30:39.553Z,2.00
2022-11-07T11:33:16.112Z,2.60
2022-11-07T11:35:50.119Z,2.80
2022-11-07T11:38:23.359Z,3.00
2022-11-07T11:41:04.796Z,2.85
2022-11-07T11:43:46.691Z,3.28
2022-11-07T11:46:25.189Z,2.35
2022-11-07T11:49:01.025Z,2.10
2022-11-07T11:51:40.081Z,3.35
2022-11-07T11:54:11.912Z,2.80
2022-11-07T11:56:50.103Z,2.42
2022-11-07T11:59:38.414Z,3.67
2022-11-07T12:02:25.042Z,2.07
2022-11-07T12:05:04.044Z,3.63
2022-11-07T12:07:46.659Z,3.80
2022-11-07T12:10:21.377Z,2.60
2022-11-07T12:12:59.545Z,2.28
2022-11-07T12:15:39.789Z,2.42
2022-11-07T12:18:17.208Z,1.88
2022-11-07T12:20:58.488Z,4.53
2022-11-07T12:23:33.519Z,3.53
2022-11-07T12:26:06.687Z,2.92
2022-11-07T12:28:43.777Z,3.30
2022-11-07T12:31:28.400Z,2.75
2022-11-07T12:34:05.539Z,5.47
2022-11-07T12:36:48.515Z,3.05
2022-11-07T12:39:34.300Z,5.25
2022-11-07T12:42:10.675Z,6.75
2022-11-07T12:44:49.791Z,3.00
2022-11-07T12:47:34.319Z,2.70
2022-11-07T12:50:17.171Z,3.97
2022-11-07T12:53:01.014Z,2.70
2022-11-07T12:55:38.483Z,7.90
2022-11-07T12:58:10.552Z,4.40
2022-11-07T13:00:40.533Z,5.95
2022-11-07T13:03:28.557Z,3.20
2022-11-07T13:06:13.444Z,5.70
2022-11-07T13:08:52.032Z,4.18
2022-11-07T13:11:24.894Z,3.13
2022-11-07T13:14:03.749Z,2.75
2022-11-07T13:16:36.370Z,3.42
2022-11-07T13:19:12.979Z,3.20
2022-11-07T13:21:44.678Z,4.38
2022-11-07T13:24:25.539Z,3.60
2022-11-07T13:26:55.444Z,4.00
2022-11-07T13:29:36.843Z,4.50
2022-11-07T13:32:12.084Z,3.42
2022-11-07T13:34:53.023Z,3.05
2022-11-07T13:37:25.120Z,3.42
2022-11-07T13:40:02.156Z,4.55
2022-11-07T13:42:33.855Z,5.00
2022-11-07T13:45:12.166Z,3.80
2022-11-07T13:47:43.514Z,3.58
2022-11-07T13:50:22.143Z,6.07
2022-11-07T13:52:58.684Z,5.43
2022-11-07T13:55:33.618Z,3.83
2022-11-07T13:58:06.010Z,3.28
2022-11-07T14:00:36.384Z,5.78
2022-11-07T14:03:06.261Z,7.60
2022-11-07T14:05:38.939Z,6.03
2022-11-07T14:08:14.144Z,2.42
2022-11-07T14:10:48.941Z,3.28
2022-11-07T14:13:27.440Z,8.13
2022-11-07T14:15:59.755Z,3.25
2022-11-07T14:18:31.442Z,2.40
2022-11-07T14:21:02.496Z,2.95
2022-11-07T14:23:34.329Z,3.70
2022-11-07T14:26:09.697Z,7.88
2022-11-07T14:28:42.130Z,3.97
2022-11-07T14:31:19.489Z,9.40
2022-11-07T14:33:54.163Z,20.08
2022-11-07T14:36:25.319Z,8.57
2022-11-07T14:38:57.109Z,10.20
2022-11-07T14:41:29.721Z,6.22
2022-11-07T14:44:03.249Z,9.65
2022-11-07T14:46:33.909Z,9.55
2022-11-07T14:49:03.778Z,11.55
2022-11-07T14:51:34.169Z,7.88
2022-11-07T14:54:07.064Z,16.15
2022-11-07T14:56:42.045Z,12.07
2022-11-07T14:59:14.024Z,15.52
2022-11-07T15:01:54.767Z,16.35
2022-11-07T15:04:33.314Z,3.65
2022-11-07T15:07:12.774Z,15.05
2022-11-07T15:09:43.360Z,7.18
2022-11-07T15:12:21.782Z,11.43
2022-11-07T15:28:00.359Z,13.00
2022-11-07T15:30:33.757Z,9.93
2022-11-07T15:33:03.669Z,8.00
2022-11-07T15:35:48.742Z,7.20
2022-11-07T15:38:21.342Z,7.38
2022-11-07T15:40:51.777Z,2.85
2022-11-07T15:43:24.590Z,4.47
2022-11-07T15:45:55.838Z,10.20
2022-11-07T15:48:27.063Z,4.78
2022-11-07T15:50:57.587Z,4.78
2022-11-07T15:53:29.149Z,3.60
2022-11-07T15:56:01.662Z,10.88
2022-11-07T15:58:34.383Z,3.22
2022-11-07T16:01:04.342Z,5.63
2022-11-07T16:03:34.255Z,2.63
2022-11-07T16:06:04.623Z,2.58
2022-11-07T16:08:34.504Z,3.15
2022-11-07T16:11:11.076Z,3.58
2022-11-07T16:13:43.553Z,3.05
2022-11-07T16:16:19.000Z,2.13
2022-11-07T16:18:53.327Z,2.88
2022-11-07T16:21:23.570Z,3.72
2022-11-07T16:23:53.458Z,4.25
2022-11-07T16:26:28.112Z,7.28
2022-11-07T16:29:00.577Z,4.18
2022-11-07T16:31:32.564Z,14.00
2022-11-07T16:34:02.446Z,24.75
2022-11-07T16:36:34.970Z,9.50
2022-11-07T16:39:06.004Z,10.60
2022-11-07T16:41:36.103Z,13.13
2022-11-07T16:44:08.625Z,9.45
2022-11-07T16:46:39.188Z,7.80
2022-11-07T16:49:15.988Z,4.85
2022-11-07T16:51:47.278Z,8.85
2022-11-07T16:54:17.141Z,6.28
2022-11-07T16:56:51.367Z,7.47
2022-11-07T16:59:25.913Z,9.57
2022-11-07T17:01:57.765Z,3.97
2022-11-07T17:04:27.753Z,8.63
2022-11-07T17:06:57.619Z,10.18
2022-11-07T17:09:28.082Z,17.40
2022-11-07T17:11:57.939Z,13.38
2022-11-07T17:14:30.383Z,13.70
2022-11-07T17:17:02.780Z,7.38
2022-11-07T17:19:32.639Z,8.20
2022-11-07T17:22:03.241Z,6.22
2022-11-07T17:24:33.364Z,13.40
2022-11-07T17:27:03.316Z,45.03
2022-11-07T17:29:35.799Z,31.58
2022-11-07T17:32:05.701Z,22.23
2022-11-07T17:34:35.558Z,32.42
2022-11-07T17:37:05.451Z,22.63
2022-11-07T17:39:35.269Z,23.35
2022-11-07T17:42:05.126Z,19.08
2022-11-07T17:44:37.605Z,16.40
2022-11-07T17:47:07.575Z,10.80
2022-11-07T17:49:37.409Z,3.35
2022-11-07T17:52:07.529Z,3.83
2022-11-07T17:54:37.591Z,7.78
2022-11-07T17:57:09.101Z,5.38
2022-11-07T17:59:45.730Z,2.22
2022-11-07T18:02:19.382Z,2.55
2022-11-07T18:04:49.537Z,3.58
2022-11-07T18:07:19.536Z,4.00
2022-11-07T18:09:49.534Z,5.40
2022-11-07T18:12:19.381Z,6.15
2022-11-07T18:14:51.866Z,8.50
2022-11-07T18:17:21.686Z,6.65
2022-11-07T18:19:51.740Z,6.30
2022-11-07T18:22:21.663Z,5.45
2022-11-07T18:24:51.492Z,6.72
2022-11-07T18:27:21.410Z,7.97
2022-11-07T18:29:53.880Z,6.35
2022-11-07T18:32:24.148Z,3.70
2022-11-07T18:34:54.003Z,8.95
2022-11-07T18:37:23.882Z,5.50
2022-11-07T18:39:53.750Z,6.18
2022-11-07T18:42:23.614Z,7.25
2022-11-07T18:44:56.080Z,4.97
2022-11-07T18:47:26.050Z,2.92
2022-11-07T18:49:57.421Z,4.75
2022-11-07T18:52:27.570Z,4.18
2022-11-07T18:54:57.454Z,4.82
2022-11-07T18:57:27.669Z,4.97
2022-11-07T19:00:00.124Z,3.20
2022-11-07T19:02:33.665Z,4.25
2022-11-07T19:05:03.638Z,4.20
2022-11-07T19:07:34.634Z,5.93
2022-11-07T19:10:04.808Z,7.05
2022-11-07T19:12:34.676Z,6.95
2022-11-07T19:15:07.813Z,5.68
2022-11-07T19:17:37.781Z,5.63
2022-11-07T19:20:08.879Z,5.57
2022-11-07T19:22:38.763Z,7.72
2022-11-07T19:25:09.200Z,4.45
2022-11-07T19:27:39.034Z,9.00
2022-11-07T19:30:13.694Z,5.28
2022-11-07T19:32:43.604Z,5.75
2022-11-07T19:35:13.456Z,4.45
2022-11-07T19:37:43.338Z,7.75
2022-11-07T19:40:14.722Z,4.97
2022-11-07T19:42:44.567Z,3.72
2022-11-07T19:45:17.019Z,4.80
2022-11-07T19:47:47.242Z,6.47
2022-11-07T19:50:17.127Z,4.95
2022-11-07T19:52:46.958Z,8.02
2022-11-07T19:55:16.790Z,3.70
2022-11-07T19:57:46.635Z,9.30
2022-11-07T20:00:20.029Z,7.03
2022-11-07T20:02:50.246Z,6.32
2022-11-07T20:05:24.335Z,6.28
2022-11-07T20:07:57.045Z,6.00
2022-11-07T20:10:29.561Z,3.88
2022-11-07T20:12:59.501Z,4.68
2022-11-07T20:15:31.980Z,3.88
2022-11-07T20:18:01.896Z,3.78
2022-11-07T20:20:31.722Z,2.35
2022-11-07T20:23:02.444Z,3.65
2022-11-07T20:25:32.868Z,3.70
2022-11-07T20:28:02.731Z,3.67
2022-11-07T20:30:35.230Z,3.42
2022-11-07T20:33:05.444Z,4.18
2022-11-07T20:35:35.350Z,2.80
2022-11-07T20:38:05.844Z,3.50
2022-11-07T20:40:35.700Z,4.20
2022-11-07T20:43:08.791Z,4.38
2022-11-07T20:45:41.215Z,3.42
2022-11-07T20:48:11.081Z,3.90
2022-11-07T20:50:41.223Z,5.38
2022-11-07T20:53:11.135Z,3.67
2022-11-07T20:55:41.824Z,4.22
2022-11-07T20:58:12.094Z,3.63
2022-11-07T21:00:47.183Z,4.20
2022-11-07T21:03:19.037Z,3.22
2022-11-07T21:05:49.183Z,4.07
2022-11-07T21:08:19.025Z,4.78
2022-11-07T21:10:50.837Z,5.28
2022-11-07T21:13:20.819Z,2.80
2022-11-07T21:15:54.653Z,4.53
2022-11-07T21:18:24.571Z,3.28
2022-11-07T21:20:54.514Z,2.67
2022-11-07T21:23:27.103Z,4.43
2022-11-07T21:25:57.212Z,4.80
2022-11-07T21:28:27.120Z,3.55
2022-11-07T21:31:08.379Z,3.28
2022-11-07T21:33:39.028Z,2.95
2022-11-07T21:36:12.403Z,2.92
2022-11-07T21:38:42.323Z,2.33
2022-11-07T21:41:13.804Z,2.88
2022-11-07T21:43:43.715Z,4.57
2022-11-07T21:46:17.839Z,2.63
2022-11-07T21:48:48.575Z,2.80
2022-11-07T21:51:20.689Z,3.47
2022-11-07T21:53:51.241Z,3.03
2022-11-07T21:56:23.928Z,3.03
2022-11-07T21:58:54.955Z,3.03
2022-11-07T22:01:28.097Z,4.20
2022-11-07T22:04:07.990Z,3.65
2022-11-07T22:06:39.392Z,4.20
2022-11-07T22:09:10.272Z,4.97
2022-11-07T22:11:40.200Z,3.72
2022-11-07T22:14:10.168Z,4.63
2022-11-07T22:16:42.614Z,2.70
2022-11-07T22:19:13.168Z,6.35
2022-11-07T22:21:43.834Z,3.33
2022-11-07T22:24:13.928Z,3.25
2022-11-07T22:26:43.964Z,3.38
2022-11-07T22:29:13.873Z,3.50
2022-11-07T22:31:46.322Z,4.18
2022-11-07T22:34:16.225Z,5.13
2022-11-07T22:36:46.076Z,4.05
2022-11-07T22:39:15.926Z,4.10
2022-11-07T22:41:45.838Z,3.65
2022-11-07T22:44:15.739Z,4.05
2022-11-07T22:46:48.186Z,3.65
2022-11-07T22:49:18.084Z,2.60
2022-11-07T22:51:47.936Z,4.65
2022-11-07T22:54:17.852Z,2.50
2022-11-07T22:56:47.696Z,4.03
2022-11-07T22:59:17.593Z,3.00
2022-11-07T23:01:50.155Z,2.63
2022-11-07T23:04:20.062Z,2.58
2022-11-07T23:06:49.929Z,3.60
2022-11-07T23:09:21.710Z,3.40
2022-11-07T23:11:52.812Z,3.15
2022-11-07T23:14:25.700Z,2.75
2022-11-07T23:16:58.684Z,3.17
2022-11-07T23:19:29.960Z,2.35
2022-11-07T23:21:59.985Z,2.45
2022-11-07T23:24:30.403Z,2.67
2022-11-07T23:27:00.450Z,3.05
2022-11-07T23:29:30.284Z,3.22
2022-11-07T23:32:02.752Z,2.60
2022-11-07T23:34:32.767Z,4.15
2022-11-07T23:37:03.492Z,3.10
2022-11-07T23:39:33.343Z,2.35
2022-11-07T23:42:03.274Z,2.05
2022-11-07T23:44:33.153Z,3.03
2022-11-07T23:47:17.996Z,2.58
2022-11-07T23:50:00.251Z,2.60
2022-11-07T23:52:30.125Z,2.38
2022-11-07T23:55:14.891Z,2.00
2022-11-07T23:57:56.947Z,2.53
